createdAt,value
2018-12-06T00:01:38.971Z,100767.67
2018-12-06T00:04:10.351Z,100765.49
2018-12-06T00:06:37.773Z,100750.73
2018-12-06T00:09:05.300Z,100763.77
2018-12-06T00:11:47.310Z,100760.28
2018-12-06T00:14:14.878Z,100766.34
2018-12-06T00:16:42.385Z,100761.11
2018-12-06T00:19:09.994Z,100765.45
2018-12-06T00:21:37.413Z,100761.55
2018-12-06T00:24:04.846Z,100767.18
2018-12-06T00:26:32.281Z,100758.06
2018-12-06T00:29:06.524Z,100762.37
2018-12-06T00:31:34.090Z,100761.06
2018-12-06T00:34:01.534Z,100758.88
2018-12-06T00:36:28.950Z,100761.95
2018-12-06T00:38:56.360Z,100758.89
2018-12-06T00:41:23.810Z,100761.92
2018-12-06T00:43:51.255Z,100760.16
2018-12-06T00:46:18.697Z,100751.92
2018-12-06T00:48:51.802Z,100741.49
2018-12-06T00:51:19.249Z,100740.62
2018-12-06T00:53:46.698Z,100741.03
2018-12-06T00:56:14.139Z,100737.12
2018-12-06T00:58:41.570Z,100738.46
2018-12-06T01:01:09.042Z,100733.67
2018-12-06T01:03:36.553Z,100734.12
2018-12-06T01:06:03.979Z,100736.70
2018-12-06T01:08:31.399Z,100735.41
2018-12-06T01:10:58.830Z,100744.95
2018-12-06T01:13:26.264Z,100733.22
2018-12-06T01:15:58.717Z,100727.16
2018-12-06T01:18:31.080Z,100728.46
2018-12-06T01:20:58.545Z,100732.77
2018-12-06T01:23:34.036Z,100734.08
2018-12-06T01:26:01.471Z,100735.80
2018-12-06T01:28:28.891Z,100740.98
2018-12-06T01:30:56.319Z,100734.02
2018-12-06T01:33:23.885Z,100739.23
2018-12-06T01:35:55.373Z,100737.05
2018-12-06T01:38:22.805Z,100740.05
2018-12-06T01:40:50.373Z,100737.87
2018-12-06T01:43:17.815Z,100742.20
2018-12-06T01:45:45.213Z,100740.02
2018-12-06T01:48:12.739Z,100738.30
2018-12-06T01:50:40.218Z,100743.48
2018-12-06T01:53:07.664Z,100742.60
2018-12-06T01:55:35.093Z,100738.27
2018-12-06T01:58:07.366Z,100739.96
2018-12-06T02:00:34.766Z,100739.53
2018-12-06T02:03:02.223Z,100735.20
2018-12-06T02:05:29.641Z,100733.90
2018-12-06T02:07:57.172Z,100735.63
2018-12-06T02:10:24.649Z,100734.75
2018-12-06T02:12:52.082Z,100732.14
2018-12-06T02:15:19.502Z,100719.95
2018-12-06T02:17:46.928Z,100725.19
2018-12-06T02:20:19.304Z,100727.80
2018-12-06T02:22:46.764Z,100722.59
2018-12-06T02:25:14.230Z,100724.31
2018-12-06T02:27:41.832Z,100726.04
2018-12-06T02:30:09.352Z,100726.01
2018-12-06T02:32:36.896Z,100722.98
2018-12-06T02:37:37.188Z,100718.64
2018-12-06T02:40:06.389Z,100712.55
2018-12-06T02:42:33.907Z,100713.00
2018-12-06T02:45:01.370Z,100711.27
2018-12-06T02:47:35.676Z,100713.00
2018-12-06T02:50:08.665Z,100706.06
2018-12-06T02:52:36.114Z,100710.36
2018-12-06T02:57:42.050Z,100708.63
2018-12-06T03:00:09.651Z,100715.15
2018-12-06T03:02:37.063Z,100716.88
2018-12-06T03:05:04.778Z,100712.94
2018-12-06T03:07:32.303Z,100708.59
2018-12-06T03:09:59.921Z,100704.69
2018-12-06T03:12:27.353Z,100700.31
2018-12-06T03:14:54.897Z,100700.31
2018-12-06T03:17:22.335Z,100704.65
2018-12-06T03:19:50.602Z,100701.58
2018-12-06T03:22:18.033Z,100703.77
2018-12-06T03:24:45.891Z,100702.89
2018-12-06T03:27:13.324Z,100701.13
2018-12-06T03:32:42.001Z,100694.56
2018-12-06T03:35:09.428Z,100692.34
2018-12-06T03:37:36.969Z,100706.23
2018-12-06T03:40:05.747Z,100706.66
2018-12-06T03:45:25.442Z,100707.92
2018-12-06T03:47:52.876Z,100715.32
2018-12-06T03:50:20.602Z,100708.80
2018-12-06T03:52:48.035Z,100710.06
2018-12-06T03:55:15.455Z,100707.45
2018-12-06T03:57:42.894Z,100708.30
2018-12-06T04:00:10.476Z,100714.36
2018-12-06T04:05:36.913Z,100715.17
2018-12-06T04:08:04.452Z,100717.77
2018-12-06T04:10:32.018Z,100727.30
2018-12-06T04:13:05.570Z,100725.56
2018-12-06T04:15:38.459Z,100722.91
2018-12-06T04:18:05.907Z,100718.58
2018-12-06T04:20:34.239Z,100718.99
2018-12-06T04:23:01.658Z,100722.44
2018-12-06T04:25:29.233Z,100722.41
2018-12-06T04:27:56.683Z,100732.81
2018-12-06T04:30:24.111Z,100733.69
2018-12-06T04:32:51.928Z,100725.44
2018-12-06T04:35:19.403Z,100734.07
2018-12-06T04:37:46.991Z,100737.11
2018-12-06T04:40:14.452Z,100727.96
2018-12-06T04:42:41.863Z,100730.11
2018-12-06T04:45:10.547Z,100730.11
2018-12-06T04:47:38.247Z,100741.86
2018-12-06T04:50:06.790Z,100756.64
2018-12-06T04:52:34.206Z,100757.91
2018-12-06T04:55:06.403Z,100756.17
2018-12-06T04:57:33.810Z,100748.80
2018-12-06T05:00:01.351Z,100759.58
2018-12-06T05:02:35.350Z,100757.38
2018-12-06T05:05:03.105Z,100759.11
2018-12-06T05:07:30.517Z,100753.38
2018-12-06T05:09:58.092Z,100756.41
2018-12-06T05:12:26.496Z,100753.75
2018-12-06T05:14:53.931Z,100754.16
2018-12-06T05:17:24.315Z,100750.24
2018-12-06T05:19:51.959Z,100749.36
2018-12-06T05:22:19.563Z,100754.08
2018-12-06T05:24:47.051Z,100757.98
2018-12-06T05:27:14.498Z,100761.44
2018-12-06T05:29:41.925Z,100766.20
2018-12-06T05:34:46.328Z,100769.23
2018-12-06T05:37:13.830Z,100774.41
2018-12-06T05:39:41.254Z,100781.78
2018-12-06T05:42:08.695Z,100776.18
2018-12-06T05:44:36.116Z,100782.63
2018-12-06T05:47:06.407Z,100789.15
2018-12-06T05:49:33.864Z,100792.19
2018-12-06T05:52:01.317Z,100792.19
2018-12-06T05:54:28.759Z,100791.30
2018-12-06T05:56:56.221Z,100779.11
2018-12-06T05:59:23.667Z,100772.53
2018-12-06T06:01:51.914Z,100773.00
2018-12-06T06:04:19.365Z,100782.57
2018-12-06T06:06:46.806Z,100785.17
2018-12-06T06:09:14.247Z,100790.40
2018-12-06T06:11:41.676Z,100777.75
2018-12-06T06:14:09.124Z,100779.48
2018-12-06T06:16:36.547Z,100778.59
2018-12-06T06:19:04.014Z,100790.77
2018-12-06T06:21:32.410Z,100810.33
2018-12-06T06:23:59.855Z,100811.64
2018-12-06T06:26:27.395Z,100822.09
2018-12-06T06:28:54.960Z,100828.58
2018-12-06T06:31:22.415Z,100829.00
2018-12-06T06:33:52.403Z,100828.53
2018-12-06T06:36:25.703Z,100835.91
2018-12-06T06:38:53.151Z,100841.97
2018-12-06T06:41:20.635Z,100840.66
2018-12-06T06:43:48.264Z,100841.93
2018-12-06T06:46:15.728Z,100849.77
2018-12-06T06:48:47.006Z,100842.34
2018-12-06T06:51:14.451Z,100848.41
2018-12-06T06:53:41.940Z,100856.25
2018-12-06T06:56:09.363Z,100867.13
2018-12-06T06:58:36.829Z,100852.75
2018-12-06T07:01:04.274Z,100860.55
2018-12-06T07:03:31.939Z,100863.58
2018-12-06T07:05:59.388Z,100872.73
2018-12-06T07:08:26.959Z,100872.72
2018-12-06T07:10:54.388Z,100879.69
2018-12-06T07:13:22.138Z,100887.06
2018-12-06T07:15:52.518Z,100893.12
2018-12-06T07:18:20.017Z,100898.78
2018-12-06T07:20:47.461Z,100896.12
2018-12-06T07:23:14.883Z,100899.62
2018-12-06T07:25:46.241Z,100903.07
2018-12-06T07:28:12.075Z,100900.88
2018-12-06T07:30:39.504Z,100897.33
2018-12-06T07:33:06.948Z,100902.09
2018-12-06T07:35:34.367Z,100901.66
2018-12-06T07:38:01.818Z,100910.35
2018-12-06T07:40:29.262Z,100909.94
2018-12-06T07:43:04.823Z,100928.66
2018-12-06T07:45:32.337Z,100928.62
2018-12-06T07:47:59.860Z,100930.34
2018-12-06T07:50:27.298Z,100929.03
2018-12-06T07:52:54.740Z,100925.95
2018-12-06T07:58:01.090Z,100936.83
2018-12-06T08:00:32.335Z,100936.36
2018-12-06T08:03:00.635Z,100928.88
2018-12-06T08:08:22.128Z,100931.02
2018-12-06T08:10:49.580Z,100924.00
2018-12-06T08:13:18.879Z,100922.23
2018-12-06T08:15:46.288Z,100933.11
2018-12-06T08:18:13.737Z,100940.06
2018-12-06T08:20:41.183Z,100936.09
2018-12-06T08:23:08.612Z,100936.50
2018-12-06T08:25:42.769Z,100926.88
2018-12-06T08:28:10.257Z,100932.94
2018-12-06T08:30:37.700Z,100945.16
2018-12-06T08:33:05.136Z,100935.06
2018-12-06T08:35:33.498Z,100943.80
2018-12-06T08:38:01.205Z,100956.42
2018-12-06T08:40:28.646Z,100944.17
2018-12-06T08:43:00.220Z,100943.27
2018-12-06T08:45:27.659Z,100939.75
2018-12-06T08:47:55.165Z,100941.89
2018-12-06T08:50:22.635Z,100934.41
2018-12-06T08:52:50.070Z,100932.20
2018-12-06T08:55:17.586Z,100935.22
2018-12-06T08:57:45.029Z,100924.70
2018-12-06T09:00:12.562Z,100923.80
2018-12-06T09:02:40.128Z,100925.94
2018-12-06T09:05:14.392Z,100925.87
2018-12-06T09:07:41.835Z,100924.09
2018-12-06T09:10:09.359Z,100923.59
2018-12-06T09:12:39.791Z,100922.23
2018-12-06T09:15:09.311Z,100931.80
2018-12-06T09:17:36.772Z,100946.59
2018-12-06T09:20:05.314Z,100948.30
2018-12-06T09:22:32.777Z,100953.48
2018-12-06T09:25:00.214Z,100956.52
2018-12-06T09:27:27.679Z,100963.89
2018-12-06T09:32:56.196Z,100974.27
2018-12-06T09:37:57.454Z,100980.31
2018-12-06T09:40:24.976Z,100985.97
2018-12-06T09:42:56.349Z,100988.12
2018-12-06T09:45:23.795Z,100993.37
2018-12-06T09:47:55.141Z,100999.02
2018-12-06T09:50:22.575Z,100996.39
2018-12-06T09:52:51.932Z,100997.66
2018-12-06T09:55:19.363Z,101007.71
2018-12-06T09:57:46.811Z,101002.45
2018-12-06T10:00:15.624Z,101013.31
2018-12-06T10:02:43.118Z,101009.36
2018-12-06T10:05:10.556Z,101004.05
2018-12-06T10:07:38.062Z,100996.60
2018-12-06T10:10:09.739Z,101003.09
2018-12-06T10:12:37.214Z,100996.45
2018-12-06T10:15:05.023Z,101003.37
2018-12-06T10:17:32.456Z,101000.25
2018-12-06T10:20:04.794Z,101001.58
2018-12-06T10:22:32.321Z,101014.29
2018-12-06T10:24:59.751Z,101014.81
2018-12-06T10:27:27.187Z,101016.14
2018-12-06T10:29:54.640Z,101019.64
2018-12-06T10:32:22.059Z,101013.98
2018-12-06T10:34:53.678Z,101013.10
2018-12-06T10:37:21.229Z,101009.17
2018-12-06T10:39:48.707Z,101015.73
2018-12-06T10:42:16.115Z,101017.52
2018-12-06T10:44:43.608Z,101019.67
2018-12-06T10:47:11.034Z,101010.08
2018-12-06T10:49:38.551Z,101011.02
2018-12-06T10:52:10.933Z,101007.50
2018-12-06T10:54:38.390Z,101017.98
2018-12-06T10:57:05.839Z,101005.72
2018-12-06T10:59:39.776Z,101005.30
2018-12-06T11:05:09.372Z,101016.89
2018-12-06T11:07:36.856Z,101016.83
2018-12-06T11:10:10.108Z,101014.62
2018-12-06T11:12:37.570Z,101025.09
2018-12-06T11:15:15.066Z,101032.13
2018-12-06T11:17:42.577Z,101036.92
2018-12-06T11:20:12.127Z,101038.28
2018-12-06T11:22:44.528Z,101043.55
2018-12-06T11:25:12.086Z,101046.70
2018-12-06T11:27:39.533Z,101055.05
2018-12-06T11:30:08.007Z,101052.86
2018-12-06T11:32:39.531Z,101052.86
2018-12-06T11:35:07.012Z,101054.66
2018-12-06T11:37:34.598Z,101055.55
2018-12-06T11:40:02.066Z,101044.64
2018-12-06T11:42:29.522Z,101044.16
2018-12-06T11:44:56.955Z,101042.84
2018-12-06T11:49:59.248Z,101044.57
2018-12-06T11:55:25.644Z,101026.20
2018-12-06T11:57:53.178Z,101034.86
2018-12-06T12:00:24.706Z,101036.58
2018-12-06T12:02:52.274Z,101039.66
2018-12-06T12:05:19.760Z,101043.55
2018-12-06T12:07:47.283Z,101046.63
2018-12-06T12:10:14.730Z,101050.52
2018-12-06T12:12:42.273Z,101048.36
2018-12-06T12:15:09.800Z,101051.82
2018-12-06T12:17:39.085Z,101051.82
2018-12-06T12:20:07.176Z,101040.49
2018-12-06T12:22:34.741Z,101034.77
2018-12-06T12:25:12.669Z,101017.64
2018-12-06T12:27:40.213Z,101017.58
2018-12-06T12:30:08.651Z,101024.48
2018-12-06T12:32:36.115Z,101020.05
2018-12-06T12:35:03.841Z,101023.09
2018-12-06T12:37:31.256Z,101025.70
2018-12-06T12:39:59.652Z,101029.99
2018-12-06T12:42:27.086Z,101032.14
2018-12-06T12:44:54.532Z,101024.22
2018-12-06T12:47:22.058Z,101012.77
2018-12-06T12:49:49.564Z,101006.17
2018-12-06T12:52:17.255Z,101010.88
2018-12-06T12:54:44.746Z,101011.70
2018-12-06T12:57:12.257Z,101003.81
2018-12-06T12:59:39.720Z,101002.91
2018-12-06T13:02:11.054Z,101005.53
2018-12-06T13:04:40.294Z,100998.97
2018-12-06T13:07:10.471Z,101009.47
2018-12-06T13:12:32.063Z,101000.16
2018-12-06T13:14:59.600Z,100998.06
2018-12-06T13:17:28.876Z,100997.16
2018-12-06T13:19:56.374Z,100991.45
2018-12-06T13:22:23.812Z,100998.91
2018-12-06T13:24:51.338Z,101000.63
2018-12-06T13:27:18.796Z,100999.37
2018-12-06T13:29:46.249Z,100998.06
2018-12-06T13:32:30.701Z,101007.25
2018-12-06T13:35:02.162Z,101003.72
2018-12-06T13:37:29.631Z,101004.98
2018-12-06T13:39:57.152Z,101007.20
2018-12-06T13:42:24.774Z,100996.27
2018-12-06T13:44:56.104Z,100998.02
2018-12-06T13:47:23.572Z,101008.08
2018-12-06T13:49:51.093Z,100998.06
2018-12-06T13:52:18.519Z,101001.09
2018-12-06T13:54:46.007Z,100999.32
2018-12-06T13:57:13.437Z,100995.44
2018-12-06T13:59:44.941Z,100997.16
2018-12-06T14:02:12.467Z,101000.62
2018-12-06T14:04:39.974Z,101008.44
2018-12-06T14:07:16.471Z,101000.56
2018-12-06T14:09:44.887Z,101010.63
2018-12-06T14:12:12.341Z,101008.49
2018-12-06T14:14:44.665Z,101008.51
2018-12-06T14:17:12.198Z,101011.20
2018-12-06T14:19:39.673Z,101004.66
2018-12-06T14:22:07.244Z,101011.22
2018-12-06T14:24:34.882Z,101002.89
2018-12-06T14:27:05.352Z,101003.33
2018-12-06T14:29:32.802Z,101001.67
2018-12-06T14:32:00.309Z,101011.70
2018-12-06T14:37:02.391Z,101009.08
2018-12-06T14:39:30.025Z,101010.39
2018-12-06T14:41:57.456Z,101011.70
2018-12-06T14:44:24.899Z,101005.19
2018-12-06T14:46:52.330Z,101021.77
2018-12-06T14:49:19.811Z,101023.98
2018-12-06T14:51:47.322Z,101018.31
2018-12-06T14:54:18.860Z,101017.43
2018-12-06T14:56:51.328Z,101013.08
2018-12-06T14:59:18.799Z,101019.63
2018-12-06T15:01:46.323Z,101018.33
2018-12-06T15:04:18.730Z,101022.70
2018-12-06T15:06:46.218Z,101013.98
2018-12-06T15:09:14.590Z,101017.52
2018-12-06T15:11:42.118Z,101010.95
2018-12-06T15:14:09.567Z,101013.16
2018-12-06T15:16:37.016Z,101014.04
2018-12-06T15:19:04.469Z,101013.58
2018-12-06T15:21:38.359Z,101006.19
2018-12-06T15:24:05.783Z,101003.09
2018-12-06T15:26:33.349Z,101012.27
2018-12-06T15:29:00.820Z,101016.20
2018-12-06T15:31:28.275Z,101008.81
2018-12-06T15:33:55.785Z,101010.55
2018-12-06T15:36:23.244Z,101002.73
2018-12-06T15:38:50.691Z,101007.56
2018-12-06T15:41:18.122Z,101001.42
2018-12-06T15:43:45.590Z,101001.83
2018-12-06T15:46:19.033Z,101004.45
2018-12-06T15:48:48.583Z,101000.95
2018-12-06T15:51:15.991Z,101001.83
2018-12-06T15:53:43.581Z,101001.78
2018-12-06T15:56:10.998Z,101003.09
2018-12-06T15:58:38.443Z,101000.94
2018-12-06T16:01:09.844Z,100999.61
2018-12-06T16:03:43.001Z,101003.55
2018-12-06T16:06:10.432Z,100993.48
2018-12-06T16:08:37.931Z,101001.78
2018-12-06T16:11:05.375Z,101010.11
2018-12-06T16:13:39.277Z,101007.02
2018-12-06T16:16:06.718Z,101008.74
2018-12-06T16:18:34.291Z,101005.69
2018-12-06T16:21:01.877Z,100997.40
2018-12-06T16:23:29.337Z,101000.44
2018-12-06T16:25:56.825Z,100992.09
2018-12-06T16:28:24.280Z,100992.09
2018-12-06T16:30:52.717Z,100982.91
2018-12-06T16:33:20.160Z,100989.04
2018-12-06T16:35:47.726Z,100998.17
2018-12-06T16:38:15.178Z,100988.16
2018-12-06T16:40:42.648Z,100990.36
2018-12-06T16:43:10.079Z,101001.70
2018-12-06T16:45:37.689Z,100990.36
2018-12-06T16:48:05.132Z,100994.24
2018-12-06T16:53:33.561Z,100996.00
2018-12-06T16:56:01.023Z,100995.55
2018-12-06T16:58:28.502Z,100993.80
2018-12-06T17:00:55.935Z,100982.87
2018-12-06T17:03:23.438Z,100986.77
2018-12-06T17:05:50.909Z,100989.86
2018-12-06T17:08:19.323Z,100988.95
2018-12-06T17:10:46.770Z,100995.05
2018-12-06T17:13:14.202Z,100996.34
2018-12-06T17:15:41.643Z,100992.41
2018-12-06T17:18:11.971Z,100994.14
2018-12-06T17:20:39.593Z,100991.08
2018-12-06T17:23:07.057Z,100993.24
2018-12-06T17:25:34.490Z,100989.30
2018-12-06T17:28:01.937Z,100987.14
2018-12-06T17:30:33.231Z,100984.52
2018-12-06T17:33:00.688Z,100984.03
2018-12-06T17:35:28.148Z,100980.52
2018-12-06T17:37:55.621Z,100980.52
2018-12-06T17:40:23.085Z,100977.06
2018-12-06T17:42:50.536Z,100980.53
2018-12-06T17:45:26.622Z,100973.55
2018-12-06T17:47:56.959Z,100977.47
2018-12-06T17:50:24.429Z,100970.03
2018-12-06T17:52:51.974Z,100973.54
2018-12-06T17:55:19.456Z,100963.88
2018-12-06T17:57:46.893Z,100964.30
2018-12-06T18:00:14.323Z,100976.98
2018-12-06T18:02:41.791Z,100967.34
2018-12-06T18:05:09.444Z,100974.77
2018-12-06T18:07:38.834Z,100978.23
2018-12-06T18:10:06.859Z,100972.55
2018-12-06T18:12:34.360Z,100979.96
2018-12-06T18:15:01.783Z,100980.38
2018-12-06T18:17:30.323Z,100975.54
2018-12-06T18:19:57.789Z,100976.42
2018-12-06T18:22:25.243Z,100975.11
2018-12-06T18:24:52.685Z,100981.25
2018-12-06T18:27:20.242Z,100987.36
2018-12-06T18:29:47.686Z,100976.42
2018-12-06T18:32:15.146Z,100984.30
2018-12-06T18:34:42.627Z,100978.16
2018-12-06T18:37:14.953Z,100981.20
2018-12-06T18:39:42.381Z,100976.83
2018-12-06T18:42:10.286Z,100970.27
2018-12-06T18:44:37.759Z,100979.45
2018-12-06T18:47:05.683Z,100971.17
2018-12-06T18:49:33.152Z,100974.23
2018-12-06T18:52:02.647Z,100973.87
2018-12-06T18:54:30.142Z,100968.65
2018-12-06T18:56:57.575Z,100969.12
2018-12-06T18:59:25.981Z,100966.09
2018-12-06T19:01:58.252Z,100964.84
2018-12-06T19:04:26.636Z,100974.44
2018-12-06T19:06:54.073Z,100975.70
2018-12-06T19:09:21.584Z,100968.70
2018-12-06T19:11:49.038Z,100968.65
2018-12-06T19:14:21.754Z,100964.28
2018-12-06T19:16:46.052Z,100966.01
2018-12-06T19:19:13.508Z,100959.42
2018-12-06T19:21:40.954Z,100957.16
2018-12-06T19:24:08.410Z,100952.30
2018-12-06T19:26:38.841Z,100949.66
2018-12-06T19:29:06.277Z,100958.85
2018-12-06T19:31:33.741Z,100960.11
2018-12-06T19:34:01.195Z,100957.97
2018-12-06T19:36:28.650Z,100957.54
2018-12-06T19:38:56.101Z,100960.16
2018-12-06T19:41:23.564Z,100954.42
2018-12-06T19:43:50.990Z,100960.52
2018-12-06T19:46:18.464Z,100964.03
2018-12-06T19:48:45.941Z,100953.52
2018-12-06T19:51:13.386Z,100961.39
2018-12-06T19:53:40.826Z,100968.78
2018-12-06T19:56:08.308Z,100953.05
2018-12-06T19:58:35.887Z,100957.88
2018-12-06T20:03:56.811Z,100970.11
2018-12-06T20:06:30.852Z,100967.00
2018-12-06T20:09:02.427Z,100961.80
2018-12-06T20:11:29.902Z,100967.41
2018-12-06T20:13:57.370Z,100959.10
2018-12-06T20:16:24.831Z,100966.16
2018-12-06T20:19:10.246Z,100959.13
2018-12-06T20:21:37.709Z,100962.63
2018-12-06T20:24:05.154Z,100962.16
2018-12-06T20:26:32.581Z,100960.41
2018-12-06T20:31:56.067Z,100953.44
2018-12-06T20:34:23.709Z,100953.38
2018-12-06T20:36:51.136Z,100953.84
2018-12-06T20:39:20.448Z,100953.44
2018-12-06T20:41:47.892Z,100950.81
2018-12-06T20:47:13.864Z,100946.81
2018-12-06T20:49:41.325Z,100943.76
2018-12-06T20:52:08.802Z,100933.28
2018-12-06T20:54:36.346Z,100936.37
2018-12-06T20:57:03.899Z,100927.61
2018-12-06T20:59:31.400Z,100931.55
2018-12-06T21:01:58.826Z,100931.96
2018-12-06T21:04:27.232Z,100922.77
2018-12-06T21:06:54.669Z,100922.34
2018-12-06T21:09:22.986Z,100913.12
2018-12-06T21:11:50.425Z,100921.42
2018-12-06T21:14:22.089Z,100926.19
2018-12-06T21:16:47.303Z,100921.78
2018-12-06T21:19:14.912Z,100929.22
2018-12-06T21:21:42.400Z,100927.03
2018-12-06T21:24:11.757Z,100920.93
2018-12-06T21:26:39.227Z,100920.93
2018-12-06T21:29:09.737Z,100918.81
2018-12-06T21:31:37.188Z,100926.71
2018-12-06T21:34:04.653Z,100920.61
2018-12-06T21:36:32.219Z,100918.42
2018-12-06T21:38:59.679Z,100911.86
2018-12-06T21:41:27.152Z,100913.58
2018-12-06T21:47:01.114Z,100912.27
2018-12-06T21:49:28.818Z,100910.95
2018-12-06T21:51:56.271Z,100907.07
2018-12-06T21:54:27.757Z,100914.95
2018-12-06T21:56:55.218Z,100904.86
2018-12-06T21:59:22.684Z,100900.94
2018-12-06T22:01:54.119Z,100901.82
2018-12-06T22:04:26.427Z,100902.72
2018-12-06T22:06:53.872Z,100904.13
2018-12-06T22:09:21.331Z,100903.72
2018-12-06T22:11:50.832Z,100906.84
2018-12-06T22:14:23.131Z,100904.75
2018-12-06T22:16:50.583Z,100905.23
2018-12-06T22:22:33.814Z,100905.40
2018-12-06T22:25:01.349Z,100899.88
2018-12-06T22:27:28.837Z,100905.22
2018-12-06T22:29:56.394Z,100905.23
2018-12-06T22:32:23.908Z,100910.06
2018-12-06T22:34:52.256Z,100915.35
2018-12-06T22:37:19.930Z,100908.83
2018-12-06T22:39:47.382Z,100911.45
2018-12-06T22:42:18.891Z,100923.73
2018-12-06T22:44:48.403Z,100908.00
2018-12-06T22:47:17.865Z,100918.48
2018-12-06T22:49:45.347Z,100905.02
2018-12-06T22:52:12.956Z,100906.41
2018-12-06T22:54:40.478Z,100904.27
2018-12-06T22:57:07.908Z,100907.30
2018-12-06T22:59:35.377Z,100905.19
2018-12-06T23:02:03.115Z,100905.62
2018-12-06T23:04:33.489Z,100898.16
2018-12-06T23:07:00.957Z,100897.75
2018-12-06T23:09:28.471Z,100899.47
2018-12-06T23:11:55.910Z,100892.97
2018-12-06T23:14:27.379Z,100893.88
2018-12-06T23:16:58.927Z,100892.22
2018-12-06T23:19:30.377Z,100901.41
2018-12-06T23:21:57.793Z,100891.01
2018-12-06T23:24:25.265Z,100883.14
2018-12-06T23:26:52.726Z,100880.53
2018-12-06T23:29:20.159Z,100879.70
2018-12-06T23:31:47.616Z,100870.05
2018-12-06T23:34:15.018Z,100877.91
2018-12-06T23:36:42.549Z,100867.39
2018-12-06T23:39:09.979Z,100869.55
2018-12-06T23:41:37.424Z,100867.73
2018-12-06T23:44:06.792Z,100871.19
2018-12-06T23:46:34.247Z,100865.51
2018-12-06T23:49:01.779Z,100861.11
2018-12-06T23:51:38.499Z,100859.36
2018-12-06T23:54:05.942Z,100851.49
2018-12-06T23:56:33.531Z,100844.92
2018-12-06T23:59:01.039Z,100840.52
